sensor_id;sensor_type;location;lat;lon;timestamp;P1;durP1;ratioP1;P2;durP2;ratioP2
6735;SDS011;3405;50.576;12.364;2023-09-18T00:00:43;2.75;;;2.42;;
6735;SDS011;3405;50.576;12.364;2023-09-18T00:03:09;3.63;;;2.97;;
6735;SDS011;3405;50.576;12.364;2023-09-18T00:05:35;2.80;;;2.53;;
6735;SDS011;3405;50.576;12.364;2023-09-18T00:08:01;4.32;;;2.90;;
6735;SDS011;3405;50.576;12.364;2023-09-18T00:10:27;2.67;;;2.47;;
6735;SDS011;3405;50.576;12.364;2023-09-18T00:12:55;3.75;;;3.00;;
6735;SDS011;3405;50.576;12.364;2023-09-18T00:15:21;2.70;;;2.50;;
6735;SDS011;3405;50.576;12.364;2023-09-18T00:17:47;2.72;;;2.53;;
6735;SDS011;3405;50.576;12.364;2023-09-18T00:20:13;2.85;;;2.50;;
6735;SDS011;3405;50.576;12.364;2023-09-18T00:22:39;3.25;;;2.65;;
6735;SDS011;3405;50.576;12.364;2023-09-18T00:25:05;2.60;;;2.40;;
6735;SDS011;3405;50.576;12.364;2023-09-18T00:27:31;2.85;;;2.55;;
6735;SDS011;3405;50.576;12.364;2023-09-18T00:29:57;3.65;;;2.78;;
6735;SDS011;3405;50.576;12.364;2023-09-18T00:32:23;2.75;;;2.55;;
6735;SDS011;3405;50.576;12.364;2023-09-18T00:34:49;2.38;;;2.08;;
6735;SDS011;3405;50.576;12.364;2023-09-18T00:37:15;2.50;;;2.30;;
6735;SDS011;3405;50.576;12.364;2023-09-18T00:39:42;2.53;;;2.30;;
6735;SDS011;3405;50.576;12.364;2023-09-18T00:42:09;3.00;;;2.70;;
6735;SDS011;3405;50.576;12.364;2023-09-18T00:44:38;2.70;;;2.50;;
6735;SDS011;3405;50.576;12.364;2023-09-18T00:47:04;2.80;;;2.45;;
6735;SDS011;3405;50.576;12.364;2023-09-18T00:49:30;6.00;;;2.47;;
6735;SDS011;3405;50.576;12.364;2023-09-18T00:51:58;3.15;;;2.67;;
6735;SDS011;3405;50.576;12.364;2023-09-18T00:54:24;2.92;;;2.70;;
6735;SDS011;3405;50.576;12.364;2023-09-18T00:56:50;2.80;;;2.60;;
6735;SDS011;3405;50.576;12.364;2023-09-18T00:59:19;3.58;;;2.65;;
6735;SDS011;3405;50.576;12.364;2023-09-18T01:01:45;3.55;;;2.83;;
6735;SDS011;3405;50.576;12.364;2023-09-18T01:04:11;2.70;;;2.50;;
6735;SDS011;3405;50.576;12.364;2023-09-18T01:06:38;3.22;;;2.67;;
6735;SDS011;3405;50.576;12.364;2023-09-18T01:09:04;4.57;;;2.75;;
6735;SDS011;3405;50.576;12.364;2023-09-18T01:12:01;2.70;;;2.50;;
6735;SDS011;3405;50.576;12.364;2023-09-18T01:14:29;2.53;;;2.33;;
6735;SDS011;3405;50.576;12.364;2023-09-18T01:16:57;4.30;;;2.63;;
6735;SDS011;3405;50.576;12.364;2023-09-18T01:22:03;4.28;;;2.80;;
6735;SDS011;3405;50.576;12.364;2023-09-18T01:24:29;2.30;;;2.10;;
6735;SDS011;3405;50.576;12.364;2023-09-18T01:26:55;2.67;;;2.25;;
6735;SDS011;3405;50.576;12.364;2023-09-18T01:29:21;2.25;;;2.05;;
6735;SDS011;3405;50.576;12.364;2023-09-18T01:31:47;3.05;;;2.75;;
6735;SDS011;3405;50.576;12.364;2023-09-18T01:34:15;3.13;;;2.58;;
6735;SDS011;3405;50.576;12.364;2023-09-18T01:36:43;2.72;;;2.53;;
6735;SDS011;3405;50.576;12.364;2023-09-18T01:39:10;2.65;;;2.22;;
6735;SDS011;3405;50.576;12.364;2023-09-18T01:41:36;2.53;;;2.33;;
6735;SDS011;3405;50.576;12.364;2023-09-18T01:44:02;2.55;;;2.35;;
6735;SDS011;3405;50.576;12.364;2023-09-18T01:46:29;3.78;;;2.67;;
6735;SDS011;3405;50.576;12.364;2023-09-18T01:48:57;2.40;;;2.20;;
6735;SDS011;3405;50.576;12.364;2023-09-18T01:51:23;3.03;;;2.40;;
6735;SDS011;3405;50.576;12.364;2023-09-18T01:53:50;2.72;;;2.22;;
6735;SDS011;3405;50.576;12.364;2023-09-18T01:56:15;2.78;;;2.45;;
6735;SDS011;3405;50.576;12.364;2023-09-18T01:58:41;2.30;;;2.10;;
6735;SDS011;3405;50.576;12.364;2023-09-18T02:01:07;3.47;;;2.28;;
6735;SDS011;3405;50.576;12.364;2023-09-18T02:03:33;5.25;;;2.08;;
6735;SDS011;3405;50.576;12.364;2023-09-18T02:05:59;2.53;;;2.33;;
6735;SDS011;3405;50.576;12.364;2023-09-18T02:08:25;3.03;;;2.30;;
6735;SDS011;3405;50.576;12.364;2023-09-18T02:10:51;2.13;;;1.92;;
6735;SDS011;3405;50.576;12.364;2023-09-18T02:13:17;2.50;;;2.30;;
6735;SDS011;3405;50.576;12.364;2023-09-18T02:15:43;2.72;;;2.20;;
6735;SDS011;3405;50.576;12.364;2023-09-18T02:18:09;2.30;;;2.10;;
6735;SDS011;3405;50.576;12.364;2023-09-18T02:20:41;2.80;;;2.10;;
6735;SDS011;3405;50.576;12.364;2023-09-18T02:23:09;2.30;;;2.10;;
6735;SDS011;3405;50.576;12.364;2023-09-18T02:25:35;2.13;;;2.03;;
6735;SDS011;3405;50.576;12.364;2023-09-18T02:28:01;3.35;;;2.22;;
6735;SDS011;3405;50.576;12.364;2023-09-18T02:30:27;3.60;;;2.10;;
6735;SDS011;3405;50.576;12.364;2023-09-18T02:32:53;2.92;;;2.10;;
6735;SDS011;3405;50.576;12.364;2023-09-18T02:35:20;3.72;;;2.38;;
6735;SDS011;3405;50.576;12.364;2023-09-18T02:37:46;3.40;;;2.47;;
6735;SDS011;3405;50.576;12.364;2023-09-18T02:40:12;3.22;;;2.08;;
6735;SDS011;3405;50.576;12.364;2023-09-18T02:42:38;2.05;;;1.90;;
6735;SDS011;3405;50.576;12.364;2023-09-18T02:45:04;2.33;;;2.13;;
6735;SDS011;3405;50.576;12.364;2023-09-18T02:47:30;2.40;;;2.20;;
6735;SDS011;3405;50.576;12.364;2023-09-18T02:49:57;2.17;;;1.98;;
6735;SDS011;3405;50.576;12.364;2023-09-18T02:52:23;2.20;;;2.00;;
6735;SDS011;3405;50.576;12.364;2023-09-18T02:54:48;2.30;;;2.10;;
6735;SDS011;3405;50.576;12.364;2023-09-18T02:57:14;1.90;;;1.80;;
6735;SDS011;3405;50.576;12.364;2023-09-18T02:59:40;2.50;;;2.25;;
6735;SDS011;3405;50.576;12.364;2023-09-18T03:02:06;1.98;;;1.85;;
6735;SDS011;3405;50.576;12.364;2023-09-18T03:04:32;2.35;;;1.90;;
6735;SDS011;3405;50.576;12.364;2023-09-18T03:06:58;2.40;;;2.20;;
6735;SDS011;3405;50.576;12.364;2023-09-18T03:09:24;2.53;;;2.33;;
6735;SDS011;3405;50.576;12.364;2023-09-18T03:11:50;2.35;;;2.15;;
6735;SDS011;3405;50.576;12.364;2023-09-18T03:14:16;2.10;;;1.90;;
6735;SDS011;3405;50.576;12.364;2023-09-18T03:16:42;3.60;;;2.40;;
6735;SDS011;3405;50.576;12.364;2023-09-18T03:19:09;3.72;;;2.20;;
6735;SDS011;3405;50.576;12.364;2023-09-18T03:21:35;5.50;;;2.67;;
6735;SDS011;3405;50.576;12.364;2023-09-18T03:24:01;3.53;;;2.55;;
6735;SDS011;3405;50.576;12.364;2023-09-18T03:26:27;2.38;;;2.17;;
6735;SDS011;3405;50.576;12.364;2023-09-18T03:28:53;2.85;;;2.30;;
6735;SDS011;3405;50.576;12.364;2023-09-18T03:31:19;2.85;;;2.50;;
6735;SDS011;3405;50.576;12.364;2023-09-18T03:33:45;4.97;;;2.10;;
6735;SDS011;3405;50.576;12.364;2023-09-18T03:36:11;2.78;;;1.95;;
6735;SDS011;3405;50.576;12.364;2023-09-18T03:38:38;3.83;;;2.20;;
6735;SDS011;3405;50.576;12.364;2023-09-18T03:41:04;2.83;;;2.25;;
6735;SDS011;3405;50.576;12.364;2023-09-18T03:43:30;4.18;;;2.53;;
6735;SDS011;3405;50.576;12.364;2023-09-18T03:46:14;14.35;;;3.10;;
6735;SDS011;3405;50.576;12.364;2023-09-18T03:48:40;15.60;;;3.97;;
6735;SDS011;3405;50.576;12.364;2023-09-18T03:51:06;10.55;;;3.97;;
6735;SDS011;3405;50.576;12.364;2023-09-18T03:53:37;13.05;;;4.20;;
6735;SDS011;3405;50.576;12.364;2023-09-18T03:56:03;11.20;;;4.45;;
6735;SDS011;3405;50.576;12.364;2023-09-18T03:58:29;9.02;;;3.80;;
6735;SDS011;3405;50.576;12.364;2023-09-18T04:00:55;7.80;;;3.25;;
6735;SDS011;3405;50.576;12.364;2023-09-18T04:03:21;11.90;;;3.50;;
6735;SDS011;3405;50.576;12.364;2023-09-18T04:05:47;8.57;;;3.83;;
6735;SDS011;3405;50.576;12.364;2023-09-18T04:08:13;9.18;;;3.85;;
6735;SDS011;3405;50.576;12.364;2023-09-18T04:10:39;8.43;;;3.47;;
6735;SDS011;3405;50.576;12.364;2023-09-18T04:13:05;13.38;;;3.75;;
6735;SDS011;3405;50.576;12.364;2023-09-18T04:15:31;5.20;;;3.33;;
6735;SDS011;3405;50.576;12.364;2023-09-18T04:17:57;7.68;;;3.10;;
6735;SDS011;3405;50.576;12.364;2023-09-18T04:20:22;7.03;;;2.95;;
6735;SDS011;3405;50.576;12.364;2023-09-18T04:23:16;8.25;;;2.92;;
6735;SDS011;3405;50.576;12.364;2023-09-18T04:25:35;5.45;;;2.97;;
6735;SDS011;3405;50.576;12.364;2023-09-18T04:28:01;4.60;;;2.97;;
6735;SDS011;3405;50.576;12.364;2023-09-18T04:30:26;4.43;;;2.65;;
6735;SDS011;3405;50.576;12.364;2023-09-18T04:32:52;6.65;;;3.17;;
6735;SDS011;3405;50.576;12.364;2023-09-18T04:35:19;7.60;;;2.70;;
6735;SDS011;3405;50.576;12.364;2023-09-18T04:37:45;6.93;;;2.60;;
6735;SDS011;3405;50.576;12.364;2023-09-18T04:40:11;4.03;;;2.40;;
6735;SDS011;3405;50.576;12.364;2023-09-18T04:42:38;5.35;;;2.80;;
6735;SDS011;3405;50.576;12.364;2023-09-18T04:45:05;3.83;;;2.63;;
6735;SDS011;3405;50.576;12.364;2023-09-18T04:47:31;5.82;;;2.63;;
6735;SDS011;3405;50.576;12.364;2023-09-18T04:49:57;4.45;;;2.60;;
6735;SDS011;3405;50.576;12.364;2023-09-18T04:52:23;2.88;;;2.40;;
6735;SDS011;3405;50.576;12.364;2023-09-18T04:54:49;4.80;;;2.80;;
6735;SDS011;3405;50.576;12.364;2023-09-18T04:57:15;5.68;;;2.72;;
6735;SDS011;3405;50.576;12.364;2023-09-18T04:59:41;5.78;;;3.10;;
6735;SDS011;3405;50.576;12.364;2023-09-18T05:02:07;6.45;;;2.83;;
6735;SDS011;3405;50.576;12.364;2023-09-18T05:04:32;7.88;;;2.90;;
6735;SDS011;3405;50.576;12.364;2023-09-18T05:06:58;3.58;;;2.20;;
6735;SDS011;3405;50.576;12.364;2023-09-18T05:09:27;3.55;;;2.60;;
6735;SDS011;3405;50.576;12.364;2023-09-18T05:11:53;6.43;;;2.90;;
6735;SDS011;3405;50.576;12.364;2023-09-18T05:14:19;3.25;;;2.33;;
6735;SDS011;3405;50.576;12.364;2023-09-18T05:16:45;3.90;;;2.33;;
6735;SDS011;3405;50.576;12.364;2023-09-18T05:19:11;5.63;;;2.75;;
6735;SDS011;3405;50.576;12.364;2023-09-18T05:21:37;4.72;;;2.40;;
6735;SDS011;3405;50.576;12.364;2023-09-18T05:24:03;4.20;;;2.33;;
6735;SDS011;3405;50.576;12.364;2023-09-18T05:26:29;3.28;;;2.40;;
6735;SDS011;3405;50.576;12.364;2023-09-18T05:28:55;6.20;;;2.50;;
6735;SDS011;3405;50.576;12.364;2023-09-18T05:31:22;2.70;;;2.28;;
6735;SDS011;3405;50.576;12.364;2023-09-18T05:33:49;2.38;;;2.15;;
6735;SDS011;3405;50.576;12.364;2023-09-18T05:36:15;2.42;;;2.20;;
6735;SDS011;3405;50.576;12.364;2023-09-18T05:38:42;1.95;;;1.83;;
6735;SDS011;3405;50.576;12.364;2023-09-18T05:41:11;5.47;;;2.10;;
6735;SDS011;3405;50.576;12.364;2023-09-18T05:43:37;2.10;;;1.90;;
6735;SDS011;3405;50.576;12.364;2023-09-18T05:46:03;5.85;;;2.15;;
6735;SDS011;3405;50.576;12.364;2023-09-18T05:48:28;2.40;;;2.08;;
6735;SDS011;3405;50.576;12.364;2023-09-18T05:50:54;5.85;;;2.22;;
6735;SDS011;3405;50.576;12.364;2023-09-18T05:53:20;4.60;;;2.45;;
6735;SDS011;3405;50.576;12.364;2023-09-18T05:55:46;7.68;;;2.33;;
6735;SDS011;3405;50.576;12.364;2023-09-18T05:58:12;7.93;;;2.55;;
6735;SDS011;3405;50.576;12.364;2023-09-18T06:00:39;5.05;;;2.28;;
6735;SDS011;3405;50.576;12.364;2023-09-18T06:03:05;8.18;;;2.33;;
6735;SDS011;3405;50.576;12.364;2023-09-18T06:05:37;4.72;;;2.17;;
6735;SDS011;3405;50.576;12.364;2023-09-18T06:08:03;6.60;;;2.60;;
6735;SDS011;3405;50.576;12.364;2023-09-18T06:10:29;2.83;;;2.58;;
6735;SDS011;3405;50.576;12.364;2023-09-18T06:12:55;5.45;;;2.42;;
6735;SDS011;3405;50.576;12.364;2023-09-18T06:15:21;4.80;;;2.20;;
6735;SDS011;3405;50.576;12.364;2023-09-18T06:17:47;4.55;;;2.50;;
6735;SDS011;3405;50.576;12.364;2023-09-18T06:20:13;3.28;;;2.90;;
6735;SDS011;3405;50.576;12.364;2023-09-18T06:22:40;6.50;;;2.65;;
6735;SDS011;3405;50.576;12.364;2023-09-18T06:25:07;3.63;;;2.42;;
6735;SDS011;3405;50.576;12.364;2023-09-18T06:27:34;3.72;;;2.28;;
6735;SDS011;3405;50.576;12.364;2023-09-18T06:30:01;2.70;;;2.33;;
6735;SDS011;3405;50.576;12.364;2023-09-18T06:32:27;4.22;;;2.45;;
6735;SDS011;3405;50.576;12.364;2023-09-18T06:34:53;3.80;;;3.10;;
6735;SDS011;3405;50.576;12.364;2023-09-18T06:37:19;2.80;;;2.20;;
6735;SDS011;3405;50.576;12.364;2023-09-18T06:39:46;4.43;;;2.38;;
6735;SDS011;3405;50.576;12.364;2023-09-18T06:42:12;4.25;;;2.10;;
6735;SDS011;3405;50.576;12.364;2023-09-18T06:44:38;2.97;;;2.20;;
6735;SDS011;3405;50.576;12.364;2023-09-18T06:47:04;2.67;;;1.83;;
6735;SDS011;3405;50.576;12.364;2023-09-18T06:49:30;4.50;;;2.08;;
6735;SDS011;3405;50.576;12.364;2023-09-18T06:51:56;3.83;;;2.20;;
6735;SDS011;3405;50.576;12.364;2023-09-18T06:54:22;2.42;;;2.22;;
6735;SDS011;3405;50.576;12.364;2023-09-18T06:56:48;2.17;;;1.95;;
6735;SDS011;3405;50.576;12.364;2023-09-18T06:59:14;3.53;;;2.08;;
6735;SDS011;3405;50.576;12.364;2023-09-18T07:01:40;2.30;;;1.90;;
6735;SDS011;3405;50.576;12.364;2023-09-18T07:04:07;3.83;;;1.80;;
6735;SDS011;3405;50.576;12.364;2023-09-18T07:06:33;3.03;;;2.00;;
6735;SDS011;3405;50.576;12.364;2023-09-18T07:08:59;2.13;;;1.92;;
6735;SDS011;3405;50.576;12.364;2023-09-18T07:11:25;1.70;;;1.40;;
6735;SDS011;3405;50.576;12.364;2023-09-18T07:13:51;1.80;;;1.63;;
6735;SDS011;3405;50.576;12.364;2023-09-18T07:16:17;2.80;;;2.13;;
6735;SDS011;3405;50.576;12.364;2023-09-18T07:18:43;2.00;;;1.80;;
6735;SDS011;3405;50.576;12.364;2023-09-18T07:21:09;3.05;;;2.13;;
6735;SDS011;3405;50.576;12.364;2023-09-18T07:23:35;2.78;;;2.10;;
6735;SDS011;3405;50.576;12.364;2023-09-18T07:26:02;2.40;;;2.00;;
6735;SDS011;3405;50.576;12.364;2023-09-18T07:28:28;2.88;;;1.95;;
6735;SDS011;3405;50.576;12.364;2023-09-18T07:30:54;2.92;;;1.60;;
6735;SDS011;3405;50.576;12.364;2023-09-18T07:33:20;2.45;;;2.25;;
6735;SDS011;3405;50.576;12.364;2023-09-18T07:35:46;1.80;;;1.70;;
6735;SDS011;3405;50.576;12.364;2023-09-18T07:38:13;2.15;;;1.95;;
6735;SDS011;3405;50.576;12.364;2023-09-18T07:40:39;2.30;;;1.70;;
6735;SDS011;3405;50.576;12.364;2023-09-18T07:43:05;2.00;;;1.90;;
6735;SDS011;3405;50.576;12.364;2023-09-18T07:45:31;1.90;;;1.73;;
6735;SDS011;3405;50.576;12.364;2023-09-18T07:47:57;3.22;;;1.83;;
6735;SDS011;3405;50.576;12.364;2023-09-18T07:50:23;3.90;;;2.00;;
6735;SDS011;3405;50.576;12.364;2023-09-18T07:52:49;2.55;;;1.75;;
6735;SDS011;3405;50.576;12.364;2023-09-18T07:55:15;4.55;;;1.98;;
6735;SDS011;3405;50.576;12.364;2023-09-18T07:57:41;2.05;;;1.92;;
6735;SDS011;3405;50.576;12.364;2023-09-18T08:00:09;2.20;;;1.92;;
6735;SDS011;3405;50.576;12.364;2023-09-18T08:02:38;2.20;;;2.00;;
6735;SDS011;3405;50.576;12.364;2023-09-18T08:05:05;2.67;;;2.17;;
6735;SDS011;3405;50.576;12.364;2023-09-18T08:07:31;2.40;;;1.83;;
6735;SDS011;3405;50.576;12.364;2023-09-18T08:09:57;2.63;;;1.98;;
6735;SDS011;3405;50.576;12.364;2023-09-18T08:12:23;2.55;;;1.98;;
6735;SDS011;3405;50.576;12.364;2023-09-18T08:14:49;2.20;;;2.00;;
6735;SDS011;3405;50.576;12.364;2023-09-18T08:17:15;3.72;;;2.20;;
6735;SDS011;3405;50.576;12.364;2023-09-18T08:19:41;1.83;;;1.73;;
6735;SDS011;3405;50.576;12.364;2023-09-18T08:22:09;3.05;;;2.10;;
6735;SDS011;3405;50.576;12.364;2023-09-18T08:24:36;2.03;;;1.83;;
6735;SDS011;3405;50.576;12.364;2023-09-18T08:27:02;2.72;;;2.05;;
6735;SDS011;3405;50.576;12.364;2023-09-18T08:29:29;2.00;;;1.83;;
6735;SDS011;3405;50.576;12.364;2023-09-18T08:31:55;2.35;;;2.15;;
6735;SDS011;3405;50.576;12.364;2023-09-18T08:34:20;2.28;;;2.08;;
6735;SDS011;3405;50.576;12.364;2023-09-18T08:36:46;2.45;;;2.25;;
6735;SDS011;3405;50.576;12.364;2023-09-18T08:39:12;2.55;;;2.08;;
6735;SDS011;3405;50.576;12.364;2023-09-18T08:41:41;2.33;;;2.08;;
6735;SDS011;3405;50.576;12.364;2023-09-18T08:44:08;2.67;;;2.13;;
6735;SDS011;3405;50.576;12.364;2023-09-18T08:46:34;2.40;;;2.20;;
6735;SDS011;3405;50.576;12.364;2023-09-18T08:49:01;3.00;;;2.70;;
6735;SDS011;3405;50.576;12.364;2023-09-18T08:51:27;5.97;;;2.00;;
6735;SDS011;3405;50.576;12.364;2023-09-18T08:53:54;2.83;;;2.13;;
6735;SDS011;3405;50.576;12.364;2023-09-18T08:56:20;2.53;;;2.15;;
6735;SDS011;3405;50.576;12.364;2023-09-18T08:58:47;2.70;;;2.50;;
6735;SDS011;3405;50.576;12.364;2023-09-18T09:01:13;2.80;;;2.22;;
6735;SDS011;3405;50.576;12.364;2023-09-18T09:03:42;3.13;;;2.80;;
6735;SDS011;3405;50.576;12.364;2023-09-18T09:06:10;2.90;;;2.53;;
6735;SDS011;3405;50.576;12.364;2023-09-18T09:08:37;3.00;;;2.47;;
6735;SDS011;3405;50.576;12.364;2023-09-18T09:11:03;2.45;;;2.25;;
6735;SDS011;3405;50.576;12.364;2023-09-18T09:13:29;2.72;;;2.28;;
6735;SDS011;3405;50.576;12.364;2023-09-18T09:15:56;5.13;;;2.70;;
6735;SDS011;3405;50.576;12.364;2023-09-18T09:18:23;2.67;;;2.47;;
6735;SDS011;3405;50.576;12.364;2023-09-18T09:20:55;2.58;;;2.38;;
6735;SDS011;3405;50.576;12.364;2023-09-18T09:23:23;2.65;;;2.42;;
6735;SDS011;3405;50.576;12.364;2023-09-18T09:25:49;2.67;;;2.47;;
6735;SDS011;3405;50.576;12.364;2023-09-18T09:28:16;3.83;;;2.40;;
6735;SDS011;3405;50.576;12.364;2023-09-18T09:30:55;3.60;;;2.60;;
6735;SDS011;3405;50.576;12.364;2023-09-18T09:33:26;4.95;;;2.40;;
6735;SDS011;3405;50.576;12.364;2023-09-18T09:35:52;4.93;;;2.72;;
6735;SDS011;3405;50.576;12.364;2023-09-18T09:38:18;4.05;;;2.30;;
6735;SDS011;3405;50.576;12.364;2023-09-18T09:40:46;5.03;;;2.60;;
6735;SDS011;3405;50.576;12.364;2023-09-18T09:43:13;5.53;;;2.63;;
6735;SDS011;3405;50.576;12.364;2023-09-18T09:45:40;2.88;;;2.47;;
6735;SDS011;3405;50.576;12.364;2023-09-18T09:48:06;5.13;;;2.50;;
6735;SDS011;3405;50.576;12.364;2023-09-18T09:50:33;3.13;;;2.47;;
6735;SDS011;3405;50.576;12.364;2023-09-18T09:52:59;6.13;;;2.83;;
6735;SDS011;3405;50.576;12.364;2023-09-18T09:55:26;3.38;;;2.60;;
6735;SDS011;3405;50.576;12.364;2023-09-18T09:57:56;8.38;;;2.70;;
6735;SDS011;3405;50.576;12.364;2023-09-18T10:00:25;6.38;;;2.60;;
6735;SDS011;3405;50.576;12.364;2023-09-18T10:03:01;4.65;;;3.00;;
6735;SDS011;3405;50.576;12.364;2023-09-18T10:05:31;7.75;;;2.47;;
6735;SDS011;3405;50.576;12.364;2023-09-18T10:07:58;4.93;;;2.70;;
6735;SDS011;3405;50.576;12.364;2023-09-18T10:10:26;8.35;;;2.90;;
6735;SDS011;3405;50.576;12.364;2023-09-18T10:12:54;6.63;;;2.30;;
6735;SDS011;3405;50.576;12.364;2023-09-18T10:15:22;5.03;;;2.47;;
6735;SDS011;3405;50.576;12.364;2023-09-18T10:17:48;9.55;;;2.60;;
6735;SDS011;3405;50.576;12.364;2023-09-18T10:20:17;9.63;;;2.90;;
6735;SDS011;3405;50.576;12.364;2023-09-18T10:22:48;5.63;;;2.60;;
6735;SDS011;3405;50.576;12.364;2023-09-18T10:25:23;5.03;;;2.40;;
6735;SDS011;3405;50.576;12.364;2023-09-18T10:27:50;5.85;;;3.20;;
6735;SDS011;3405;50.576;12.364;2023-09-18T10:30:19;10.40;;;2.72;;
6735;SDS011;3405;50.576;12.364;2023-09-18T10:32:48;3.92;;;2.50;;
6735;SDS011;3405;50.576;12.364;2023-09-18T10:35:15;9.85;;;2.58;;
6735;SDS011;3405;50.576;12.364;2023-09-18T10:37:42;5.65;;;2.70;;
6735;SDS011;3405;50.576;12.364;2023-09-18T10:40:11;5.15;;;2.30;;
6735;SDS011;3405;50.576;12.364;2023-09-18T10:42:38;3.50;;;2.40;;
6735;SDS011;3405;50.576;12.364;2023-09-18T10:45:04;5.55;;;2.33;;
6735;SDS011;3405;50.576;12.364;2023-09-18T10:47:31;7.78;;;2.63;;
6735;SDS011;3405;50.576;12.364;2023-09-18T10:49:57;4.43;;;2.58;;
6735;SDS011;3405;50.576;12.364;2023-09-18T10:52:23;7.18;;;2.78;;
6735;SDS011;3405;50.576;12.364;2023-09-18T10:54:50;9.70;;;2.95;;
6735;SDS011;3405;50.576;12.364;2023-09-18T10:57:16;5.55;;;2.60;;
6735;SDS011;3405;50.576;12.364;2023-09-18T10:59:45;5.53;;;2.75;;
6735;SDS011;3405;50.576;12.364;2023-09-18T11:02:15;8.35;;;2.65;;
6735;SDS011;3405;50.576;12.364;2023-09-18T11:04:41;6.75;;;2.42;;
6735;SDS011;3405;50.576;12.364;2023-09-18T11:07:08;3.38;;;2.50;;
6735;SDS011;3405;50.576;12.364;2023-09-18T11:09:43;4.53;;;2.38;;
6735;SDS011;3405;50.576;12.364;2023-09-18T11:12:10;7.70;;;2.15;;
6735;SDS011;3405;50.576;12.364;2023-09-18T11:14:49;5.20;;;2.20;;
6735;SDS011;3405;50.576;12.364;2023-09-18T11:17:39;5.68;;;2.30;;
6735;SDS011;3405;50.576;12.364;2023-09-18T11:20:07;7.50;;;2.30;;
6735;SDS011;3405;50.576;12.364;2023-09-18T11:22:45;5.32;;;2.10;;
6735;SDS011;3405;50.576;12.364;2023-09-18T11:27:56;5.18;;;2.35;;
6735;SDS011;3405;50.576;12.364;2023-09-18T11:30:22;5.30;;;2.03;;
6735;SDS011;3405;50.576;12.364;2023-09-18T11:32:51;4.63;;;1.92;;
6735;SDS011;3405;50.576;12.364;2023-09-18T11:35:18;8.85;;;2.50;;
6735;SDS011;3405;50.576;12.364;2023-09-18T11:37:45;5.00;;;2.40;;
6735;SDS011;3405;50.576;12.364;2023-09-18T11:40:30;3.10;;;2.03;;
6735;SDS011;3405;50.576;12.364;2023-09-18T11:43:18;4.00;;;2.00;;
6735;SDS011;3405;50.576;12.364;2023-09-18T11:45:44;7.32;;;2.20;;
6735;SDS011;3405;50.576;12.364;2023-09-18T11:48:15;4.60;;;1.95;;
6735;SDS011;3405;50.576;12.364;2023-09-18T11:50:42;6.05;;;1.92;;
6735;SDS011;3405;50.576;12.364;2023-09-18T11:53:09;8.38;;;1.80;;
6735;SDS011;3405;50.576;12.364;2023-09-18T11:55:35;8.20;;;2.30;;
6735;SDS011;3405;50.576;12.364;2023-09-18T11:58:02;4.03;;;1.80;;
6735;SDS011;3405;50.576;12.364;2023-09-18T12:00:29;7.20;;;2.42;;
6735;SDS011;3405;50.576;12.364;2023-09-18T12:02:56;3.58;;;1.77;;
6735;SDS011;3405;50.576;12.364;2023-09-18T12:05:23;5.03;;;1.83;;
6735;SDS011;3405;50.576;12.364;2023-09-18T12:07:51;3.55;;;1.35;;
6735;SDS011;3405;50.576;12.364;2023-09-18T12:10:19;5.15;;;1.75;;
6735;SDS011;3405;50.576;12.364;2023-09-18T12:12:46;6.68;;;2.17;;
6735;SDS011;3405;50.576;12.364;2023-09-18T12:15:17;6.10;;;2.15;;
6735;SDS011;3405;50.576;12.364;2023-09-18T12:17:43;7.07;;;1.48;;
6735;SDS011;3405;50.576;12.364;2023-09-18T12:20:15;2.90;;;1.60;;
6735;SDS011;3405;50.576;12.364;2023-09-18T12:22:46;3.70;;;1.35;;
6735;SDS011;3405;50.576;12.364;2023-09-18T12:25:13;4.47;;;1.58;;
6735;SDS011;3405;50.576;12.364;2023-09-18T12:27:40;3.28;;;1.85;;
6735;SDS011;3405;50.576;12.364;2023-09-18T12:30:07;4.18;;;1.35;;
6735;SDS011;3405;50.576;12.364;2023-09-18T12:32:35;4.07;;;1.77;;
6735;SDS011;3405;50.576;12.364;2023-09-18T12:35:02;3.90;;;1.40;;
6735;SDS011;3405;50.576;12.364;2023-09-18T12:37:32;6.05;;;1.40;;
6735;SDS011;3405;50.576;12.364;2023-09-18T12:39:57;4.13;;;1.35;;
6735;SDS011;3405;50.576;12.364;2023-09-18T12:42:23;2.67;;;1.60;;
6735;SDS011;3405;50.576;12.364;2023-09-18T12:44:50;5.13;;;1.52;;
6735;SDS011;3405;50.576;12.364;2023-09-18T12:47:16;5.88;;;1.40;;
6735;SDS011;3405;50.576;12.364;2023-09-18T12:49:42;4.22;;;1.45;;
6735;SDS011;3405;50.576;12.364;2023-09-18T12:52:08;2.75;;;1.23;;
6735;SDS011;3405;50.576;12.364;2023-09-18T12:54:45;2.78;;;1.27;;
6735;SDS011;3405;50.576;12.364;2023-09-18T12:57:18;2.30;;;1.52;;
6735;SDS011;3405;50.576;12.364;2023-09-18T12:59:44;4.10;;;1.45;;
6735;SDS011;3405;50.576;12.364;2023-09-18T13:02:12;2.85;;;1.60;;
6735;SDS011;3405;50.576;12.364;2023-09-18T13:04:38;6.22;;;1.88;;
6735;SDS011;3405;50.576;12.364;2023-09-18T13:07:09;2.15;;;1.23;;
6735;SDS011;3405;50.576;12.364;2023-09-18T13:09:36;4.65;;;1.48;;
6735;SDS011;3405;50.576;12.364;2023-09-18T13:12:02;4.55;;;1.50;;
6735;SDS011;3405;50.576;12.364;2023-09-18T13:14:28;3.63;;;1.80;;
6735;SDS011;3405;50.576;12.364;2023-09-18T13:17:01;4.55;;;1.50;;
6735;SDS011;3405;50.576;12.364;2023-09-18T13:19:30;3.45;;;1.80;;
6735;SDS011;3405;50.576;12.364;2023-09-18T13:21:56;4.32;;;1.70;;
6735;SDS011;3405;50.576;12.364;2023-09-18T13:24:24;3.10;;;1.48;;
6735;SDS011;3405;50.576;12.364;2023-09-18T13:26:50;2.83;;;1.60;;
6735;SDS011;3405;50.576;12.364;2023-09-18T13:29:15;2.75;;;1.45;;
6735;SDS011;3405;50.576;12.364;2023-09-18T13:31:41;2.58;;;1.27;;
6735;SDS011;3405;50.576;12.364;2023-09-18T13:34:07;4.80;;;1.42;;
6735;SDS011;3405;50.576;12.364;2023-09-18T13:36:33;2.08;;;1.70;;
6735;SDS011;3405;50.576;12.364;2023-09-18T13:38:59;3.88;;;1.33;;
6735;SDS011;3405;50.576;12.364;2023-09-18T13:41:25;3.33;;;2.13;;
6735;SDS011;3405;50.576;12.364;2023-09-18T13:43:51;4.43;;;2.30;;
6735;SDS011;3405;50.576;12.364;2023-09-18T13:46:20;3.70;;;2.15;;
6735;SDS011;3405;50.576;12.364;2023-09-18T13:48:47;3.80;;;2.10;;
6735;SDS011;3405;50.576;12.364;2023-09-18T13:51:13;4.88;;;2.08;;
6735;SDS011;3405;50.576;12.364;2023-09-18T13:53:39;3.80;;;1.88;;
6735;SDS011;3405;50.576;12.364;2023-09-18T13:56:06;3.60;;;1.88;;
6735;SDS011;3405;50.576;12.364;2023-09-18T13:58:32;6.25;;;1.70;;
6735;SDS011;3405;50.576;12.364;2023-09-18T14:00:58;6.63;;;1.77;;
6735;SDS011;3405;50.576;12.364;2023-09-18T14:03:24;5.57;;;1.63;;
6735;SDS011;3405;50.576;12.364;2023-09-18T14:05:50;3.70;;;1.67;;
6735;SDS011;3405;50.576;12.364;2023-09-18T14:08:17;3.38;;;1.55;;
6735;SDS011;3405;50.576;12.364;2023-09-18T14:10:43;4.82;;;1.80;;
6735;SDS011;3405;50.576;12.364;2023-09-18T14:13:09;3.13;;;1.52;;
6735;SDS011;3405;50.576;12.364;2023-09-18T14:15:35;3.90;;;2.55;;
6735;SDS011;3405;50.576;12.364;2023-09-18T14:18:02;16.20;;;6.85;;
6735;SDS011;3405;50.576;12.364;2023-09-18T14:20:28;36.65;;;9.18;;
6735;SDS011;3405;50.576;12.364;2023-09-18T14:22:54;22.92;;;7.88;;
6735;SDS011;3405;50.576;12.364;2023-09-18T14:25:20;13.75;;;5.43;;
6735;SDS011;3405;50.576;12.364;2023-09-18T14:27:47;11.77;;;4.60;;
6735;SDS011;3405;50.576;12.364;2023-09-18T14:30:13;14.82;;;4.78;;
6735;SDS011;3405;50.576;12.364;2023-09-18T14:32:39;25.83;;;9.35;;
6735;SDS011;3405;50.576;12.364;2023-09-18T14:35:06;61.45;;;29.83;;
6735;SDS011;3405;50.576;12.364;2023-09-18T14:37:35;53.10;;;27.63;;
6735;SDS011;3405;50.576;12.364;2023-09-18T14:40:01;40.45;;;21.52;;
6735;SDS011;3405;50.576;12.364;2023-09-18T14:42:27;34.20;;;16.13;;
6735;SDS011;3405;50.576;12.364;2023-09-18T14:44:53;22.00;;;9.30;;
6735;SDS011;3405;50.576;12.364;2023-09-18T14:47:19;21.63;;;8.80;;
6735;SDS011;3405;50.576;12.364;2023-09-18T14:49:45;19.05;;;9.18;;
6735;SDS011;3405;50.576;12.364;2023-09-18T14:52:12;22.65;;;11.55;;
6735;SDS011;3405;50.576;12.364;2023-09-18T14:54:39;25.30;;;10.02;;
6735;SDS011;3405;50.576;12.364;2023-09-18T14:57:05;18.60;;;6.72;;
6735;SDS011;3405;50.576;12.364;2023-09-18T14:59:31;18.38;;;6.82;;
6735;SDS011;3405;50.576;12.364;2023-09-18T15:01:57;13.27;;;5.53;;
6735;SDS011;3405;50.576;12.364;2023-09-18T15:04:23;11.68;;;5.05;;